sensor_id;sensor_type;location;lat;lon;timestamp;pressure;altitude;pressure_sealevel;temperature;humidity
52469;BME280;38381;53.688;10.776;2023-05-20T00:04:42;102461.88;;;9.80;61.73
52469;BME280;38381;53.688;10.776;2023-05-20T00:09:43;102460.81;;;9.75;61.61
52469;BME280;38381;53.688;10.776;2023-05-20T00:14:43;102458.94;;;9.71;61.93
52469;BME280;38381;53.688;10.776;2023-05-20T00:19:43;102469.06;;;9.65;62.39
52469;BME280;38381;53.688;10.776;2023-05-20T00:24:44;102471.56;;;9.62;62.66
52469;BME280;38381;53.688;10.776;2023-05-20T00:29:44;102474.38;;;9.68;63.28
52469;BME280;38381;53.688;10.776;2023-05-20T00:34:54;102472.66;;;9.69;63.05
52469;BME280;38381;53.688;10.776;2023-05-20T00:39:55;102472.50;;;9.64;63.07
52469;BME280;38381;53.688;10.776;2023-05-20T00:44:55;102472.44;;;9.62;63.10
52469;BME280;38381;53.688;10.776;2023-05-20T00:49:56;102470.47;;;9.57;63.18
52469;BME280;38381;53.688;10.776;2023-05-20T00:54:57;102472.97;;;9.54;63.11
52469;BME280;38381;53.688;10.776;2023-05-20T00:59:58;102465.91;;;9.50;62.82
52469;BME280;38381;53.688;10.776;2023-05-20T01:04:58;102461.38;;;9.44;62.69
52469;BME280;38381;53.688;10.776;2023-05-20T01:09:59;102458.94;;;9.49;62.71
52469;BME280;38381;53.688;10.776;2023-05-20T01:15:09;102459.66;;;9.44;63.17
52469;BME280;38381;53.688;10.776;2023-05-20T01:20:10;102450.00;;;9.40;63.23
52469;BME280;38381;53.688;10.776;2023-05-20T01:25:11;102451.56;;;9.37;63.65
52469;BME280;38381;53.688;10.776;2023-05-20T01:30:12;102442.84;;;9.33;64.13
52469;BME280;38381;53.688;10.776;2023-05-20T01:35:14;102449.53;;;9.28;65.37
52469;BME280;38381;53.688;10.776;2023-05-20T01:40:15;102444.25;;;9.25;65.25
52469;BME280;38381;53.688;10.776;2023-05-20T01:45:18;102448.28;;;9.18;66.21
52469;BME280;38381;53.688;10.776;2023-05-20T01:50:19;102447.53;;;9.21;66.62
52469;BME280;38381;53.688;10.776;2023-05-20T01:55:19;102444.25;;;9.25;66.73
52469;BME280;38381;53.688;10.776;2023-05-20T02:00:20;102446.53;;;9.17;67.13
52469;BME280;38381;53.688;10.776;2023-05-20T02:05:20;102437.81;;;9.15;67.76
52469;BME280;38381;53.688;10.776;2023-05-20T02:10:20;102446.59;;;9.19;68.80
52469;BME280;38381;53.688;10.776;2023-05-20T02:15:21;102449.44;;;9.04;69.06
52469;BME280;38381;53.688;10.776;2023-05-20T02:20:21;102442.81;;;9.11;68.59
52469;BME280;38381;53.688;10.776;2023-05-20T02:25:21;102446.34;;;9.13;69.09
52469;BME280;38381;53.688;10.776;2023-05-20T02:30:22;102441.03;;;9.10;69.76
52469;BME280;38381;53.688;10.776;2023-05-20T02:35:22;102437.50;;;9.07;69.84
52469;BME280;38381;53.688;10.776;2023-05-20T02:40:23;102438.81;;;8.96;70.92
52469;BME280;38381;53.688;10.776;2023-05-20T02:45:23;102442.44;;;9.01;70.39
52469;BME280;38381;53.688;10.776;2023-05-20T02:50:23;102435.28;;;8.94;71.10
52469;BME280;38381;53.688;10.776;2023-05-20T02:55:24;102435.69;;;9.05;70.70
52469;BME280;38381;53.688;10.776;2023-05-20T03:00:25;102435.75;;;9.06;71.01
52469;BME280;38381;53.688;10.776;2023-05-20T03:05:27;102444.00;;;8.98;72.17
52469;BME280;38381;53.688;10.776;2023-05-20T03:10:28;102440.72;;;9.02;71.93
52469;BME280;38381;53.688;10.776;2023-05-20T03:15:28;102440.00;;;9.04;72.23
52469;BME280;38381;53.688;10.776;2023-05-20T03:20:29;102440.56;;;8.97;73.43
52469;BME280;38381;53.688;10.776;2023-05-20T03:25:29;102435.69;;;9.05;72.92
52469;BME280;38381;53.688;10.776;2023-05-20T03:30:30;102440.00;;;9.04;73.57
52469;BME280;38381;53.688;10.776;2023-05-20T03:35:30;102444.22;;;9.02;74.39
52469;BME280;38381;53.688;10.776;2023-05-20T03:40:31;102446.13;;;9.06;75.00
52469;BME280;38381;53.688;10.776;2023-05-20T03:45:31;102437.69;;;9.12;74.97
52469;BME280;38381;53.688;10.776;2023-05-20T03:50:33;102439.53;;;9.15;75.69
52469;BME280;38381;53.688;10.776;2023-05-20T03:55:34;102444.25;;;9.25;75.57
52469;BME280;38381;53.688;10.776;2023-05-20T04:00:34;102439.06;;;9.25;76.02
52469;BME280;38381;53.688;10.776;2023-05-20T04:05:34;102443.66;;;9.32;76.12
52469;BME280;38381;53.688;10.776;2023-05-20T04:10:35;102436.94;;;9.37;76.00
52469;BME280;38381;53.688;10.776;2023-05-20T04:15:37;102442.53;;;9.48;75.52
52469;BME280;38381;53.688;10.776;2023-05-20T04:20:38;102435.16;;;9.59;75.91
52469;BME280;38381;53.688;10.776;2023-05-20T04:25:40;102444.09;;;9.67;76.25
52469;BME280;38381;53.688;10.776;2023-05-20T04:30:41;102440.16;;;9.77;75.86
52469;BME280;38381;53.688;10.776;2023-05-20T04:35:44;102442.09;;;9.82;76.33
52469;BME280;38381;53.688;10.776;2023-05-20T04:40:47;102440.75;;;9.94;76.00
52469;BME280;38381;53.688;10.776;2023-05-20T04:45:48;102438.72;;;10.09;75.56
52469;BME280;38381;53.688;10.776;2023-05-20T04:50:49;102439.25;;;10.24;74.59
52469;BME280;38381;53.688;10.776;2023-05-20T04:55:53;102446.22;;;10.25;75.22
52469;BME280;38381;53.688;10.776;2023-05-20T05:00:53;102437.09;;;10.37;74.80
52469;BME280;38381;53.688;10.776;2023-05-20T05:05:57;102436.50;;;10.44;74.33
52469;BME280;38381;53.688;10.776;2023-05-20T05:10:57;102434.13;;;10.52;74.74
52469;BME280;38381;53.688;10.776;2023-05-20T05:15:59;102424.56;;;10.76;73.68
52469;BME280;38381;53.688;10.776;2023-05-20T05:21:03;102433.69;;;10.91;73.29
52469;BME280;38381;53.688;10.776;2023-05-20T05:26:04;102428.13;;;11.05;73.16
52469;BME280;38381;53.688;10.776;2023-05-20T05:31:06;102433.72;;;11.19;72.70
52469;BME280;38381;53.688;10.776;2023-05-20T05:36:07;102434.25;;;11.36;72.61
52469;BME280;38381;53.688;10.776;2023-05-20T05:41:07;102434.91;;;11.59;72.21
52469;BME280;38381;53.688;10.776;2023-05-20T05:46:08;102429.91;;;11.65;72.47
52469;BME280;38381;53.688;10.776;2023-05-20T05:51:08;102430.16;;;11.75;71.53
52469;BME280;38381;53.688;10.776;2023-05-20T05:56:09;102431.88;;;12.04;71.64
52469;BME280;38381;53.688;10.776;2023-05-20T06:01:10;102435.09;;;12.27;71.01
52469;BME280;38381;53.688;10.776;2023-05-20T06:06:11;102434.84;;;12.52;70.53
52469;BME280;38381;53.688;10.776;2023-05-20T06:11:11;102440.09;;;12.88;70.12
52469;BME280;38381;53.688;10.776;2023-05-20T06:16:11;102448.72;;;13.23;67.36
52469;BME280;38381;53.688;10.776;2023-05-20T06:21:12;102444.75;;;13.80;66.03
52469;BME280;38381;53.688;10.776;2023-05-20T06:26:12;102429.06;;;14.24;64.96
52469;BME280;38381;53.688;10.776;2023-05-20T06:31:12;102429.25;;;14.34;64.26
52469;BME280;38381;53.688;10.776;2023-05-20T06:36:13;102415.84;;;14.62;63.32
52469;BME280;38381;53.688;10.776;2023-05-20T06:41:13;102422.41;;;14.94;61.93
52469;BME280;38381;53.688;10.776;2023-05-20T06:46:14;102419.72;;;14.91;61.69
52469;BME280;38381;53.688;10.776;2023-05-20T06:51:14;102414.94;;;15.20;61.09
52469;BME280;38381;53.688;10.776;2023-05-20T06:56:15;102413.91;;;15.74;60.17
52469;BME280;38381;53.688;10.776;2023-05-20T07:01:15;102409.81;;;15.98;59.75
52469;BME280;38381;53.688;10.776;2023-05-20T07:06:16;102417.59;;;15.90;59.80
52469;BME280;38381;53.688;10.776;2023-05-20T07:11:16;102404.53;;;15.95;58.50
52469;BME280;38381;53.688;10.776;2023-05-20T07:16:16;102397.44;;;15.84;59.29
52469;BME280;38381;53.688;10.776;2023-05-20T07:21:17;102397.72;;;16.09;59.42
52469;BME280;38381;53.688;10.776;2023-05-20T07:26:17;102392.59;;;16.21;59.13
52469;BME280;38381;53.688;10.776;2023-05-20T07:31:18;102384.03;;;16.39;58.26
52469;BME280;38381;53.688;10.776;2023-05-20T07:36:18;102382.41;;;16.54;57.53
52469;BME280;38381;53.688;10.776;2023-05-20T07:41:19;102384.09;;;16.47;57.52
52469;BME280;38381;53.688;10.776;2023-05-20T07:46:20;102377.00;;;16.38;57.60
52469;BME280;38381;53.688;10.776;2023-05-20T07:51:20;102381.19;;;16.18;56.22
52469;BME280;38381;53.688;10.776;2023-05-20T07:56:21;102376.00;;;16.19;56.76
52469;BME280;38381;53.688;10.776;2023-05-20T08:01:21;102375.13;;;16.22;57.92
52469;BME280;38381;53.688;10.776;2023-05-20T08:06:22;102366.78;;;16.66;57.43
52469;BME280;38381;53.688;10.776;2023-05-20T08:11:25;102361.59;;;16.78;54.85
52469;BME280;38381;53.688;10.776;2023-05-20T08:16:25;102363.31;;;16.70;56.13
52469;BME280;38381;53.688;10.776;2023-05-20T08:21:26;102356.06;;;16.38;55.67
52469;BME280;38381;53.688;10.776;2023-05-20T08:26:26;102370.84;;;16.32;55.44
52469;BME280;38381;53.688;10.776;2023-05-20T08:31:27;102370.53;;;15.95;55.69
52469;BME280;38381;53.688;10.776;2023-05-20T08:36:27;102362.81;;;16.08;56.49
52469;BME280;38381;53.688;10.776;2023-05-20T08:41:28;102353.25;;;16.12;55.98
52469;BME280;38381;53.688;10.776;2023-05-20T08:46:30;102350.63;;;16.11;55.25
52469;BME280;38381;53.688;10.776;2023-05-20T08:51:32;102348.53;;;15.76;55.17
52469;BME280;38381;53.688;10.776;2023-05-20T08:56:33;102345.13;;;15.84;55.91
52469;BME280;38381;53.688;10.776;2023-05-20T09:01:40;102345.97;;;15.82;56.38
52469;BME280;38381;53.688;10.776;2023-05-20T09:06:43;102345.06;;;15.78;56.88
52469;BME280;38381;53.688;10.776;2023-05-20T09:11:44;102351.06;;;15.71;56.00
52469;BME280;38381;53.688;10.776;2023-05-20T09:16:44;102348.41;;;15.65;57.17
52469;BME280;38381;53.688;10.776;2023-05-20T09:21:46;102336.31;;;15.76;57.67
52469;BME280;38381;53.688;10.776;2023-05-20T09:26:47;102339.94;;;15.89;57.68
52469;BME280;38381;53.688;10.776;2023-05-20T09:31:48;102334.81;;;16.01;56.70
52469;BME280;38381;53.688;10.776;2023-05-20T09:36:49;102342.00;;;16.24;55.81
52469;BME280;38381;53.688;10.776;2023-05-20T09:42:16;102327.38;;;16.52;55.39
52469;BME280;38381;53.688;10.776;2023-05-20T09:47:18;102322.00;;;16.34;53.83
52469;BME280;38381;53.688;10.776;2023-05-20T09:52:19;102324.41;;;16.09;55.06
52469;BME280;38381;53.688;10.776;2023-05-20T09:57:19;102329.59;;;16.00;55.45
52469;BME280;38381;53.688;10.776;2023-05-20T10:02:20;102322.63;;;16.02;55.05
52469;BME280;38381;53.688;10.776;2023-05-20T10:07:52;102321.66;;;15.92;56.06
52469;BME280;38381;53.688;10.776;2023-05-20T10:23:29;102297.44;;;16.16;55.19
52469;BME280;38381;53.688;10.776;2023-05-20T10:28:31;102291.25;;;16.06;55.78
52469;BME280;38381;53.688;10.776;2023-05-20T10:33:41;102285.31;;;16.29;55.23
52469;BME280;38381;53.688;10.776;2023-05-20T10:38:51;102271.59;;;16.73;54.08
52469;BME280;38381;53.688;10.776;2023-05-20T10:44:04;102273.25;;;16.54;54.23
52469;BME280;38381;53.688;10.776;2023-05-20T10:49:16;102276.75;;;16.55;54.51
52469;BME280;38381;53.688;10.776;2023-05-20T10:54:17;102284.50;;;16.38;55.11
52469;BME280;38381;53.688;10.776;2023-05-20T10:59:18;102275.75;;;16.36;54.83
52469;BME280;38381;53.688;10.776;2023-05-20T11:04:19;102261.91;;;16.49;55.17
52469;BME280;38381;53.688;10.776;2023-05-20T11:09:19;102263.53;;;16.33;53.60
52469;BME280;38381;53.688;10.776;2023-05-20T11:14:20;102261.81;;;16.35;54.61
52469;BME280;38381;53.688;10.776;2023-05-20T11:19:21;102260.84;;;16.25;54.84
52469;BME280;38381;53.688;10.776;2023-05-20T11:24:24;102253.81;;;16.12;54.69
52469;BME280;38381;53.688;10.776;2023-05-20T11:29:25;102266.00;;;16.10;55.00
52469;BME280;38381;53.688;10.776;2023-05-20T11:34:33;102259.00;;;16.09;55.64
52469;BME280;38381;53.688;10.776;2023-05-20T11:39:36;102263.38;;;16.10;56.01
52469;BME280;38381;53.688;10.776;2023-05-20T11:44:42;102259.88;;;16.09;55.91
52469;BME280;38381;53.688;10.776;2023-05-20T11:49:47;102258.16;;;16.15;56.38
52469;BME280;38381;53.688;10.776;2023-05-20T11:54:54;102267.69;;;16.05;56.55
52469;BME280;38381;53.688;10.776;2023-05-20T11:59:55;102259.09;;;16.21;56.39
52469;BME280;38381;53.688;10.776;2023-05-20T12:04:55;102253.84;;;16.18;56.49
52469;BME280;38381;53.688;10.776;2023-05-20T12:09:57;102250.31;;;16.18;55.47
52469;BME280;38381;53.688;10.776;2023-05-20T12:14:57;102245.03;;;16.07;56.36
52469;BME280;38381;53.688;10.776;2023-05-20T12:19:58;102241.56;;;16.11;57.06
52469;BME280;38381;53.688;10.776;2023-05-20T12:24:58;102237.22;;;16.15;56.95
52469;BME280;38381;53.688;10.776;2023-05-20T12:29:58;102238.06;;;16.09;58.01
52469;BME280;38381;53.688;10.776;2023-05-20T12:34:59;102232.91;;;16.21;57.40
52469;BME280;38381;53.688;10.776;2023-05-20T12:39:59;102224.25;;;16.28;57.45
52469;BME280;38381;53.688;10.776;2023-05-20T12:45:00;102210.19;;;16.17;58.13
52469;BME280;38381;53.688;10.776;2023-05-20T12:50:01;102217.25;;;16.27;57.58
52469;BME280;38381;53.688;10.776;2023-05-20T12:55:02;102206.78;;;16.27;58.37
52469;BME280;38381;53.688;10.776;2023-05-20T13:00:04;102204.22;;;16.44;58.00
52469;BME280;38381;53.688;10.776;2023-05-20T13:05:05;102194.66;;;16.45;57.81
52469;BME280;38381;53.688;10.776;2023-05-20T13:10:06;102195.56;;;16.52;57.82
52469;BME280;38381;53.688;10.776;2023-05-20T13:15:07;102195.59;;;16.59;57.83
52469;BME280;38381;53.688;10.776;2023-05-20T13:20:09;102176.34;;;16.49;58.59
52469;BME280;38381;53.688;10.776;2023-05-20T13:25:10;102166.81;;;16.68;58.63
52469;BME280;38381;53.688;10.776;2023-05-20T13:30:11;102174.63;;;16.56;58.45
52469;BME280;38381;53.688;10.776;2023-05-20T13:35:11;102163.22;;;16.43;58.81
52469;BME280;38381;53.688;10.776;2023-05-20T13:40:12;102161.44;;;16.38;59.08
52469;BME280;38381;53.688;10.776;2023-05-20T13:45:12;102159.75;;;16.43;59.65
52469;BME280;38381;53.688;10.776;2023-05-20T13:50:13;102161.44;;;16.35;59.67
52469;BME280;38381;53.688;10.776;2023-05-20T13:55:13;102151.81;;;16.32;59.72
52469;BME280;38381;53.688;10.776;2023-05-20T14:00:15;102144.03;;;16.43;60.13
52469;BME280;38381;53.688;10.776;2023-05-20T14:05:15;102138.81;;;16.52;59.84
52469;BME280;38381;53.688;10.776;2023-05-20T14:10:18;102144.09;;;16.61;59.73
52469;BME280;38381;53.688;10.776;2023-05-20T14:15:19;102138.00;;;16.65;60.24
52469;BME280;38381;53.688;10.776;2023-05-20T14:20:19;102123.94;;;16.46;60.34
52469;BME280;38381;53.688;10.776;2023-05-20T14:25:20;102117.78;;;16.34;61.34
52469;BME280;38381;53.688;10.776;2023-05-20T14:30:20;102106.50;;;16.55;60.89
52469;BME280;38381;53.688;10.776;2023-05-20T14:35:21;102095.09;;;16.36;61.24
52469;BME280;38381;53.688;10.776;2023-05-20T14:40:21;102095.22;;;16.63;61.16
52469;BME280;38381;53.688;10.776;2023-05-20T14:45:22;102083.84;;;16.70;60.63
52469;BME280;38381;53.688;10.776;2023-05-20T14:50:22;102075.09;;;16.56;60.86
52469;BME280;38381;53.688;10.776;2023-05-20T14:55:22;102076.84;;;16.62;60.79
52469;BME280;38381;53.688;10.776;2023-05-20T15:00:23;102072.53;;;16.72;62.31
52469;BME280;38381;53.688;10.776;2023-05-20T15:05:23;102065.53;;;16.67;63.62
52469;BME280;38381;53.688;10.776;2023-05-20T15:10:24;102058.53;;;16.63;63.17
52469;BME280;38381;53.688;10.776;2023-05-20T15:15:24;102062.91;;;16.77;62.18
52469;BME280;38381;53.688;10.776;2023-05-20T15:20:25;102048.09;;;16.83;61.83
52469;BME280;38381;53.688;10.776;2023-05-20T15:25:25;102042.81;;;16.63;64.24
52469;BME280;38381;53.688;10.776;2023-05-20T15:30:26;102048.06;;;16.69;61.63
52469;BME280;38381;53.688;10.776;2023-05-20T15:35:26;102045.44;;;16.68;61.69
52469;BME280;38381;53.688;10.776;2023-05-20T15:40:26;102042.81;;;16.63;61.96
52469;BME280;38381;53.688;10.776;2023-05-20T15:45:27;102043.66;;;16.56;61.64
52469;BME280;38381;53.688;10.776;2023-05-20T15:50:27;102031.44;;;16.54;61.57
52469;BME280;38381;53.688;10.776;2023-05-20T15:55:28;102027.91;;;16.36;62.96
52469;BME280;38381;53.688;10.776;2023-05-20T16:00:28;102023.53;;;16.40;62.56
52469;BME280;38381;53.688;10.776;2023-05-20T16:05:29;102015.72;;;16.46;62.91
52469;BME280;38381;53.688;10.776;2023-05-20T16:10:29;102007.84;;;16.35;63.05
52469;BME280;38381;53.688;10.776;2023-05-20T16:15:33;102006.13;;;16.53;63.04
52469;BME280;38381;53.688;10.776;2023-05-20T16:20:35;101996.50;;;16.55;62.98
52469;BME280;38381;53.688;10.776;2023-05-20T16:25:36;101993.03;;;16.62;63.18
52469;BME280;38381;53.688;10.776;2023-05-20T16:30:36;101986.91;;;16.47;62.74
52469;BME280;38381;53.688;10.776;2023-05-20T16:35:37;101995.66;;;16.54;62.69
52469;BME280;38381;53.688;10.776;2023-05-20T16:40:37;101987.81;;;16.66;62.44
52469;BME280;38381;53.688;10.776;2023-05-20T16:45:37;101980.81;;;16.61;62.41
52469;BME280;38381;53.688;10.776;2023-05-20T16:50:38;101971.22;;;16.54;62.57
52469;BME280;38381;53.688;10.776;2023-05-20T16:55:38;101979.94;;;16.48;63.01
52469;BME280;38381;53.688;10.776;2023-05-20T17:00:39;101969.44;;;16.39;63.44
52469;BME280;38381;53.688;10.776;2023-05-20T17:05:40;101981.66;;;16.35;62.77
52469;BME280;38381;53.688;10.776;2023-05-20T17:10:40;101980.78;;;16.28;63.29
52469;BME280;38381;53.688;10.776;2023-05-20T17:15:40;101973.78;;;16.18;63.42
52469;BME280;38381;53.688;10.776;2023-05-20T17:20:41;101979.91;;;16.31;63.12
52469;BME280;38381;53.688;10.776;2023-05-20T17:25:41;101990.34;;;16.23;63.04
52469;BME280;38381;53.688;10.776;2023-05-20T17:30:42;101986.88;;;16.27;63.43
52469;BME280;38381;53.688;10.776;2023-05-20T17:35:45;101985.13;;;16.29;63.38
52469;BME280;38381;53.688;10.776;2023-05-20T17:40:46;101981.63;;;16.27;63.12
52469;BME280;38381;53.688;10.776;2023-05-20T17:45:47;101980.78;;;16.36;63.34
52469;BME280;38381;53.688;10.776;2023-05-20T17:50:47;101984.25;;;16.34;63.34
52469;BME280;38381;53.688;10.776;2023-05-20T17:55:47;101982.50;;;16.29;63.39
52469;BME280;38381;53.688;10.776;2023-05-20T18:00:48;101972.94;;;16.35;63.28
52469;BME280;38381;53.688;10.776;2023-05-20T18:05:48;101960.69;;;16.34;63.43
52469;BME280;38381;53.688;10.776;2023-05-20T18:10:49;101965.03;;;16.25;63.64
52469;BME280;38381;53.688;10.776;2023-05-20T18:15:50;101956.28;;;16.16;63.93
52469;BME280;38381;53.688;10.776;2023-05-20T18:20:51;101965.03;;;16.10;64.14
52469;BME280;38381;53.688;10.776;2023-05-20T18:25:52;101954.53;;;16.05;64.42
52469;BME280;38381;53.688;10.776;2023-05-20T18:30:52;101954.50;;;15.95;64.83
52469;BME280;38381;53.688;10.776;2023-05-20T18:35:54;101957.97;;;15.91;64.79
52469;BME280;38381;53.688;10.776;2023-05-20T18:40:55;101957.06;;;15.82;65.66
52469;BME280;38381;53.688;10.776;2023-05-20T18:45:56;101952.63;;;15.70;65.97
52469;BME280;38381;53.688;10.776;2023-05-20T18:50:56;101956.97;;;15.65;66.10
52469;BME280;38381;53.688;10.776;2023-05-20T18:55:57;101963.03;;;15.58;66.31
52469;BME280;38381;53.688;10.776;2023-05-20T19:01:02;101974.38;;;15.59;66.12
52469;BME280;38381;53.688;10.776;2023-05-20T19:06:02;101976.09;;;15.55;66.47
52469;BME280;38381;53.688;10.776;2023-05-20T19:11:03;101971.66;;;15.40;66.82
52469;BME280;38381;53.688;10.776;2023-05-20T19:16:03;101969.84;;;15.32;66.83
52469;BME280;38381;53.688;10.776;2023-05-20T19:21:04;101972.34;;;15.15;67.66
52469;BME280;38381;53.688;10.776;2023-05-20T19:26:04;101970.44;;;14.92;69.02
52469;BME280;38381;53.688;10.776;2023-05-20T19:31:05;101984.25;;;14.77;69.21
52469;BME280;38381;53.688;10.776;2023-05-20T19:36:05;101979.75;;;14.61;69.65
52469;BME280;38381;53.688;10.776;2023-05-20T19:41:06;101979.63;;;14.48;69.92
52469;BME280;38381;53.688;10.776;2023-05-20T19:46:07;101982.16;;;14.42;69.64
52469;BME280;38381;53.688;10.776;2023-05-20T19:51:07;101971.41;;;14.13;70.57
52469;BME280;38381;53.688;10.776;2023-05-20T19:56:09;101981.78;;;14.07;70.82
52469;BME280;38381;53.688;10.776;2023-05-20T20:01:10;101982.47;;;13.94;70.97
52469;BME280;38381;53.688;10.776;2023-05-20T20:06:12;101993.63;;;13.80;71.22
52469;BME280;38381;53.688;10.776;2023-05-20T20:11:12;101985.59;;;13.65;71.81
52469;BME280;38381;53.688;10.776;2023-05-20T20:16:13;101982.97;;;13.62;71.80
52469;BME280;38381;53.688;10.776;2023-05-20T20:21:14;101986.34;;;13.56;72.01
52469;BME280;38381;53.688;10.776;2023-05-20T20:26:15;101984.59;;;13.54;72.24
52469;BME280;38381;53.688;10.776;2023-05-20T20:31:16;101980.03;;;13.40;72.26
52469;BME280;38381;53.688;10.776;2023-05-20T20:36:16;101983.47;;;13.36;72.49
52469;BME280;38381;53.688;10.776;2023-05-20T20:41:17;101985.84;;;13.24;73.24
52469;BME280;38381;53.688;10.776;2023-05-20T20:46:18;101983.22;;;13.22;73.49
52469;BME280;38381;53.688;10.776;2023-05-20T20:51:18;101981.41;;;13.18;73.70
52469;BME280;38381;53.688;10.776;2023-05-20T20:56:18;101981.25;;;13.07;73.79
52469;BME280;38381;53.688;10.776;2023-05-20T21:01:19;101983.03;;;13.10;73.66
52469;BME280;38381;53.688;10.776;2023-05-20T21:06:20;101977.75;;;13.05;73.73
52469;BME280;38381;53.688;10.776;2023-05-20T21:11:20;101981.22;;;13.04;74.11
52469;BME280;38381;53.688;10.776;2023-05-20T21:16:21;101985.53;;;13.02;73.74
52469;BME280;38381;53.688;10.776;2023-05-20T21:21:22;101982.94;;;13.02;73.70
52469;BME280;38381;53.688;10.776;2023-05-20T21:26:23;101981.09;;;12.97;73.97
52469;BME280;38381;53.688;10.776;2023-05-20T21:31:24;101974.94;;;12.93;73.74
52469;BME280;38381;53.688;10.776;2023-05-20T21:36:24;101971.44;;;12.91;73.36
52469;BME280;38381;53.688;10.776;2023-05-20T21:41:25;101964.38;;;12.82;73.10
52469;BME280;38381;53.688;10.776;2023-05-20T21:46:26;101960.88;;;12.80;72.34
52469;BME280;38381;53.688;10.776;2023-05-20T21:51:26;101965.06;;;12.72;72.30
52469;BME280;38381;53.688;10.776;2023-05-20T21:56:27;101956.47;;;12.76;72.11
52469;BME280;38381;53.688;10.776;2023-05-20T22:01:27;101951.97;;;12.67;72.28
52469;BME280;38381;53.688;10.776;2023-05-20T22:06:27;101952.78;;;12.63;72.26
52469;BME280;38381;53.688;10.776;2023-05-20T22:11:28;101931.91;;;12.60;71.85
52469;BME280;38381;53.688;10.776;2023-05-20T22:16:29;101936.16;;;12.55;71.49
52469;BME280;38381;53.688;10.776;2023-05-20T22:21:29;101932.34;;;12.36;72.04
52469;BME280;38381;53.688;10.776;2023-05-20T22:26:29;101928.94;;;12.39;71.41
52469;BME280;38381;53.688;10.776;2023-05-20T22:31:30;101927.88;;;12.29;71.00
52469;BME280;38381;53.688;10.776;2023-05-20T22:36:30;101925.31;;;12.31;71.09
52469;BME280;38381;53.688;10.776;2023-05-20T22:41:33;101921.63;;;12.19;71.36
52469;BME280;38381;53.688;10.776;2023-05-20T22:46:33;101922.38;;;12.12;71.04
52469;BME280;38381;53.688;10.776;2023-05-20T22:51:33;101917.06;;;12.07;71.04
52469;BME280;38381;53.688;10.776;2023-05-20T22:56:35;101908.41;;;12.07;71.72
52469;BME280;38381;53.688;10.776;2023-05-20T23:01:35;101892.66;;;11.98;71.61
52469;BME280;38381;53.688;10.776;2023-05-20T23:06:36;101888.25;;;11.95;71.70
52469;BME280;38381;53.688;10.776;2023-05-20T23:11:37;101887.16;;;11.84;72.01
52469;BME280;38381;53.688;10.776;2023-05-20T23:16:37;101882.88;;;11.87;71.62
52469;BME280;38381;53.688;10.776;2023-05-20T23:21:41;101879.19;;;11.76;71.83
52469;BME280;38381;53.688;10.776;2023-05-20T23:26:42;101868.75;;;11.75;71.82
52469;BME280;38381;53.688;10.776;2023-05-20T23:31:42;101863.44;;;11.67;72.07
52469;BME280;38381;53.688;10.776;2023-05-20T23:36:43;101855.41;;;11.56;73.47
52469;BME280;38381;53.688;10.776;2023-05-20T23:41:44;101871.78;;;11.52;73.68
52469;BME280;38381;53.688;10.776;2023-05-20T23:46:45;101870.84;;;11.48;74.11
52469;BME280;38381;53.688;10.776;2023-05-20T23:51:45;101861.25;;;11.44;74.48
52469;BME280;38381;53.688;10.776;2023-05-20T23:56:46;101862.03;;;11.40;75.25
